createdAt,value
2023-04-12T15:19:10.047Z,94640.53
2023-04-12T15:22:00.467Z,94639.66
2023-04-12T15:24:46.971Z,94659.72
2023-04-12T15:27:33.549Z,94663.31
2023-04-12T15:30:23.141Z,94661.03
2023-04-12T15:33:09.525Z,94660.06
2023-04-12T15:35:58.416Z,94651.16
2023-04-12T15:38:44.870Z,94675.59
2023-04-12T15:41:34.881Z,94665.16
2023-04-12T15:44:21.828Z,94671.66
2023-04-12T15:47:11.583Z,94678.63
2023-04-12T15:49:58.232Z,94681.13
2023-04-12T15:52:45.913Z,94683.00
2023-04-12T15:55:31.951Z,94688.88
2023-04-12T15:58:18.375Z,94680.59
2023-04-12T16:01:05.162Z,94674.34
2023-04-12T16:03:53.563Z,94686.69
2023-04-12T16:06:40.230Z,94684.56
2023-04-12T16:09:27.146Z,94676.78
2023-04-12T16:12:13.082Z,94681.94
2023-04-12T16:14:59.293Z,94693.16
2023-04-12T16:17:49.352Z,94679.13
2023-04-12T16:20:35.521Z,94689.56
2023-04-12T16:23:22.536Z,94690.28
2023-04-12T16:26:09.400Z,94691.53
2023-04-12T16:28:55.659Z,94690.50
2023-04-12T16:31:42.296Z,94679.81
2023-04-12T16:34:31.849Z,94688.38
2023-04-12T16:37:18.312Z,94675.34
2023-04-12T16:40:13.685Z,94685.38
2023-04-12T16:43:00.796Z,94680.19
2023-04-12T16:45:48.579Z,94688.63
2023-04-12T16:48:44.740Z,94694.06
2023-04-12T16:51:36.762Z,94691.84
2023-04-12T16:54:24.106Z,94686.44
2023-04-12T16:57:13.408Z,94696.22
2023-04-12T17:00:00.725Z,94696.53
2023-04-12T17:02:48.951Z,94690.34
2023-04-12T17:05:36.160Z,94700.41
2023-04-12T17:08:23.006Z,94697.47
2023-04-12T17:11:09.268Z,94699.75
2023-04-12T17:13:55.589Z,94705.44
2023-04-12T17:16:45.466Z,94721.00
2023-04-12T17:19:34.748Z,94672.75
2023-04-12T17:22:21.354Z,94695.59
2023-04-12T17:25:09.930Z,94718.34
2023-04-12T17:27:56.348Z,94733.84
2023-04-12T17:30:42.890Z,94729.06
2023-04-12T17:33:29.274Z,94736.41
2023-04-12T17:36:15.549Z,94748.47
2023-04-12T17:39:04.827Z,94754.13
2023-04-12T17:42:03.766Z,94720.78
2023-04-12T17:44:50.946Z,94756.41
2023-04-12T17:47:44.620Z,94746.22
2023-04-12T17:50:37.832Z,94776.19
2023-04-12T17:53:36.217Z,94750.00
2023-04-12T17:56:22.560Z,94759.94
2023-04-12T17:59:47.223Z,94753.50
2023-04-12T18:02:54.788Z,94742.44
2023-04-12T18:05:51.706Z,94756.25
2023-04-12T18:08:45.409Z,94775.19
2023-04-12T18:11:52.337Z,94770.03
2023-04-12T18:14:47.565Z,94802.38
2023-04-12T18:17:46.832Z,94806.44
2023-04-12T18:20:38.048Z,94793.69
2023-04-12T18:23:23.989Z,94782.75
2023-04-12T18:26:11.707Z,94812.72
2023-04-12T18:29:01.602Z,94798.63
2023-04-12T18:31:51.697Z,94833.72
2023-04-12T18:34:38.464Z,94772.28
2023-04-12T18:37:29.599Z,94772.94
2023-04-12T18:40:41.384Z,94804.34
2023-04-12T18:43:27.741Z,94831.94
2023-04-12T18:46:18.122Z,94827.31
2023-04-12T18:49:10.743Z,94794.72
2023-04-12T18:51:59.112Z,94820.66
2023-04-12T18:54:45.545Z,94840.50
2023-04-12T18:57:31.914Z,94848.00
2023-04-12T19:01:19.396Z,94818.69
2023-04-12T19:03:51.277Z,94849.38
2023-04-12T19:06:46.457Z,94842.69
2023-04-12T19:09:49.780Z,94796.66
2023-04-12T19:12:47.444Z,94801.03
2023-04-12T19:15:36.697Z,94844.28
2023-04-12T19:18:23.617Z,94839.16
2023-04-12T19:21:10.138Z,94822.78
2023-04-12T19:23:57.156Z,94822.22
2023-04-12T19:27:15.248Z,94857.03
2023-04-12T19:30:17.265Z,94802.13
2023-04-12T19:33:30.092Z,94849.50
2023-04-12T19:36:31.289Z,94865.81
2023-04-12T19:39:31.231Z,94834.53
2023-04-12T19:42:18.340Z,94836.81
2023-04-12T19:45:04.925Z,94872.22
2023-04-12T19:47:51.240Z,94847.31
2023-04-12T19:50:37.707Z,94852.06
2023-04-12T19:53:24.345Z,94848.16
2023-04-12T19:56:12.903Z,94851.88
2023-04-12T19:59:00.004Z,94851.66
2023-04-12T20:01:49.894Z,94872.25
2023-04-12T20:04:36.403Z,94851.66
2023-04-12T20:07:26.520Z,94839.72
2023-04-12T20:10:47.278Z,94838.91
2023-04-12T20:14:01.152Z,94828.41
2023-04-12T20:16:57.832Z,94865.25
2023-04-12T20:19:45.911Z,94853.91
2023-04-12T20:22:55.485Z,94820.97
2023-04-12T20:25:53.333Z,94875.72
2023-04-12T20:28:43.908Z,94880.66
2023-04-12T20:31:30.713Z,94852.66
2023-04-12T20:34:17.774Z,94878.19
2023-04-12T20:37:03.822Z,94881.47
2023-04-12T20:39:51.531Z,94886.19
2023-04-12T20:42:38.045Z,94876.09
2023-04-12T20:45:25.131Z,94864.16
2023-04-12T20:48:12.620Z,94845.63
2023-04-12T20:50:58.551Z,94873.66
2023-04-12T20:53:47.479Z,94878.13
2023-04-12T20:56:33.638Z,94883.91
2023-04-12T20:59:24.234Z,94891.06
2023-04-12T21:05:17.100Z,94890.66
2023-04-12T21:08:07.559Z,94882.22
2023-04-12T21:10:53.801Z,94878.09
2023-04-12T21:13:40.742Z,94885.06
2023-04-12T21:16:27.611Z,94882.97
2023-04-12T21:19:17.457Z,94869.34
2023-04-12T21:22:03.974Z,94881.50
2023-04-12T21:24:50.418Z,94878.97
2023-04-12T21:27:37.545Z,94890.91
2023-04-12T21:30:23.727Z,94882.63
2023-04-12T21:33:14.239Z,94898.22
2023-04-12T21:36:01.437Z,94897.94
2023-04-12T21:38:47.867Z,94898.75
2023-04-12T21:41:34.240Z,94893.75
2023-04-12T21:44:22.335Z,94899.09
2023-04-12T21:47:08.891Z,94893.91
2023-04-12T21:49:54.775Z,94871.19
2023-04-12T21:52:43.123Z,94893.19
2023-04-12T21:55:29.435Z,94886.59
2023-04-12T21:58:19.467Z,94884.50
2023-04-12T22:01:05.675Z,94890.44
2023-04-12T22:03:52.983Z,94885.72
2023-04-12T22:06:39.212Z,94858.69
2023-04-12T22:09:25.597Z,94888.53
2023-04-12T22:12:12.331Z,94897.94
2023-04-12T22:14:58.572Z,94882.44
2023-04-12T22:17:45.486Z,94888.53
2023-04-12T22:20:33.677Z,94898.84
2023-04-12T22:23:19.479Z,94894.00
2023-04-12T22:26:09.543Z,94901.28
2023-04-12T22:28:55.338Z,94905.69
2023-04-12T22:31:43.572Z,94891.56
2023-04-12T22:34:29.901Z,94891.50
2023-04-12T22:37:16.238Z,94902.44
2023-04-12T22:40:02.468Z,94884.44
2023-04-12T22:42:48.722Z,94901.41
2023-04-12T22:45:35.923Z,94881.03
2023-04-12T22:48:25.108Z,94895.41
2023-04-12T22:51:11.321Z,94902.78
2023-04-12T22:53:59.162Z,94887.38
2023-04-12T22:56:45.575Z,94905.66
2023-04-12T22:59:31.695Z,94907.19
2023-04-12T23:02:17.808Z,94918.31
2023-04-12T23:05:05.235Z,94910.06
2023-04-12T23:07:52.325Z,94912.91
2023-04-12T23:10:38.970Z,94894.38
2023-04-12T23:13:25.159Z,94900.91
2023-04-12T23:16:11.322Z,94896.31
2023-04-12T23:18:59.277Z,94886.41
2023-04-12T23:21:45.236Z,94899.47
2023-04-12T23:24:31.124Z,94899.00
2023-04-12T23:27:17.239Z,94890.13
2023-04-12T23:30:03.761Z,94896.06
2023-04-12T23:32:50.146Z,94888.56
2023-04-12T23:35:39.449Z,94882.97
2023-04-12T23:38:32.751Z,94890.03
2023-04-12T23:41:19.555Z,94899.38
2023-04-12T23:44:06.661Z,94907.28
2023-04-12T23:46:53.172Z,94902.41
2023-04-12T23:49:39.171Z,94896.97
2023-04-12T23:52:25.188Z,94895.88
2023-04-12T23:55:11.148Z,94902.84
2023-04-12T23:57:57.385Z,94905.69
